EETN Airport Information

Runway Information
Runway 08 Length 10072 ft width 148 ft
Elevation 129 ft Threshold 820 ft Heading 90
Runway 26 Length 10072 ft Width 148 ft
Elevation 131 ft Threshold 0 ft Heading 270
Airport Frequencies
Type APP Name APP Frequency 127.9 MHZ
Type ATIS Name ATIS Frequency 124.875 MHZ
Type TWR Name TWR Frequency 120.6 MHZ
Airport Navaids
Type NDB Name Tallinn Frequency 329 KHZ
Type NDB Name Tallinn Frequency 386 KHZ
Type VOR-DME Name Tallinn Frequency 112200 KHZ
Airport Weather Information & NOTAM
ADDS - METARS form results

(1918 UTC 19 July 2018)
 
METAR text: EETN 191850Z 04007KT CAVOK 22/17 Q1011 NOSIG
Conditions at: EETN (TALLINN , EE) observed 1850 UTC 19 July 2018
Temperature: 22.0°C (72°F)
Dewpoint: 17.0°C (63°F) [RH = 73%]
Pressure (altimeter): 29.85 inches Hg (1011.0 mb)
Winds: from the NE (40 degrees) at 8 MPH (7 knots; 3.6 m/s)
Visibility: 6 or more miles (10+ km)
Ceiling: ceiling and visibility are OK
Clouds: unknown
Weather: no significant weather observed at this time

METAR text: EETN 191820Z 05008KT CAVOK 23/16 Q1011 NOSIG
Conditions at: EETN (TALLINN , EE) observed 1820 UTC 19 July 2018
Temperature: 23.0°C (73°F)
Dewpoint: 16.0°C (61°F) [RH = 65%]
Pressure (altimeter): 29.85 inches Hg (1011.0 mb)
Winds: from the NE (50 degrees) at 9 MPH (8 knots; 4.2 m/s)
Visibility: 6 or more miles (10+ km)
Ceiling: ceiling and visibility are OK
Clouds: unknown
Weather: no significant weather observed at this time